createdAt,value
2018-06-16T00:01:46.693Z,49.60
2018-06-16T00:04:15.316Z,49.60
2018-06-16T00:06:43.818Z,49.70
2018-06-16T00:09:12.331Z,49.80
2018-06-16T00:11:41.492Z,49.80
2018-06-16T00:14:10.999Z,49.90
2018-06-16T00:16:40.907Z,50.00
2018-06-16T00:19:10.392Z,50.00
2018-06-16T00:21:38.902Z,50.40
2018-06-16T00:24:07.398Z,50.30
2018-06-16T00:26:35.903Z,50.30
2018-06-16T00:29:04.374Z,50.20
2018-06-16T00:31:32.883Z,50.20
2018-06-16T00:34:01.359Z,50.20
2018-06-16T00:36:29.860Z,50.20
2018-06-16T00:38:58.373Z,50.20
2018-06-16T00:41:26.890Z,50.20
2018-06-16T00:43:55.354Z,50.20
2018-06-16T00:46:23.828Z,50.20
2018-06-16T00:48:52.306Z,50.20
2018-06-16T00:51:20.838Z,50.20
2018-06-16T00:53:49.330Z,50.30
2018-06-16T00:56:17.840Z,50.40
2018-06-16T00:58:46.347Z,50.30
2018-06-16T01:01:14.863Z,50.40
2018-06-16T01:03:43.335Z,50.40
2018-06-16T01:06:11.880Z,50.50
2018-06-16T01:08:40.461Z,50.50
2018-06-16T01:11:09.066Z,50.60
2018-06-16T01:13:37.545Z,50.60
2018-06-16T01:16:06.111Z,50.60
2018-06-16T01:18:34.593Z,50.60
2018-06-16T01:21:03.113Z,50.50
2018-06-16T01:23:31.598Z,50.60
2018-06-16T01:26:00.050Z,50.50
2018-06-16T01:28:28.608Z,50.60
2018-06-16T01:30:57.194Z,50.60
2018-06-16T01:33:25.779Z,50.60
2018-06-16T01:35:54.270Z,50.70
2018-06-16T01:38:22.808Z,50.60
2018-06-16T01:40:51.317Z,50.80
2018-06-16T01:43:19.779Z,50.80
2018-06-16T01:45:48.212Z,50.70
2018-06-16T01:48:16.689Z,51.40
2018-06-16T01:50:45.131Z,50.90
2018-06-16T01:53:13.575Z,51.00
2018-06-16T01:55:42.004Z,51.00
2018-06-16T02:00:38.608Z,51.00
2018-06-16T02:03:07.068Z,51.00
2018-06-16T02:05:35.544Z,51.00
2018-06-16T02:08:04.007Z,51.10
2018-06-16T02:10:32.430Z,51.10
2018-06-16T02:13:00.834Z,51.10
2018-06-16T02:15:29.294Z,51.20
2018-06-16T02:17:57.718Z,51.20
2018-06-16T02:20:26.159Z,51.20
2018-06-16T02:22:54.603Z,51.20
2018-06-16T02:25:23.114Z,51.30
2018-06-16T02:27:51.572Z,51.30
2018-06-16T02:30:20.029Z,51.30
2018-06-16T02:32:48.774Z,51.30
2018-06-16T02:35:17.240Z,51.40
2018-06-16T02:37:45.647Z,51.40
2018-06-16T02:40:14.117Z,51.30
2018-06-16T02:42:42.555Z,51.30
2018-06-16T02:45:11.044Z,51.40
2018-06-16T02:47:39.479Z,51.40
2018-06-16T02:50:08.003Z,51.40
2018-06-16T02:52:36.426Z,51.50
2018-06-16T02:55:04.918Z,51.50
2018-06-16T02:57:33.353Z,51.50
2018-06-16T03:00:01.896Z,51.60
2018-06-16T03:02:30.310Z,51.70
2018-06-16T03:04:58.800Z,51.70
2018-06-16T03:07:28.110Z,51.70
2018-06-16T03:09:56.595Z,51.80
2018-06-16T03:12:25.032Z,51.80
2018-06-16T03:14:53.550Z,51.90
2018-06-16T03:17:21.987Z,51.80
2018-06-16T03:19:50.463Z,51.90
2018-06-16T03:22:18.888Z,51.90
2018-06-16T03:24:47.360Z,52.00
2018-06-16T03:27:15.831Z,51.90
2018-06-16T03:29:44.291Z,52.00
2018-06-16T03:32:12.794Z,52.00
2018-06-16T03:34:41.326Z,52.00
2018-06-16T03:37:09.766Z,52.10
2018-06-16T03:39:38.209Z,52.10
2018-06-16T03:42:06.686Z,52.10
2018-06-16T03:44:35.115Z,52.10
2018-06-16T03:47:03.623Z,52.10
2018-06-16T03:49:32.071Z,52.10
2018-06-16T03:52:00.653Z,52.10
2018-06-16T03:54:29.106Z,52.20
2018-06-16T03:56:57.572Z,52.20
2018-06-16T03:59:26.026Z,52.20
2018-06-16T04:01:54.502Z,52.20
2018-06-16T04:04:22.938Z,52.20
2018-06-16T04:06:51.472Z,52.20
2018-06-16T04:09:19.928Z,52.20
2018-06-16T04:11:48.354Z,52.20
2018-06-16T04:14:16.820Z,52.20
2018-06-16T04:16:45.310Z,52.20
2018-06-16T04:19:13.769Z,52.10
2018-06-16T04:21:42.254Z,52.10
2018-06-16T04:24:10.859Z,52.20
2018-06-16T04:26:39.364Z,52.10
2018-06-16T04:29:07.787Z,52.20
2018-06-16T04:31:36.243Z,52.20
2018-06-16T04:34:04.703Z,52.20
2018-06-16T04:36:33.172Z,52.10
2018-06-16T04:39:01.606Z,52.10
2018-06-16T04:41:30.100Z,52.10
2018-06-16T04:43:58.624Z,52.00
2018-06-16T04:46:27.066Z,52.00
2018-06-16T04:48:55.530Z,52.00
2018-06-16T04:51:24.063Z,51.90
2018-06-16T04:53:52.494Z,51.90
2018-06-16T04:56:20.978Z,52.00
2018-06-16T04:58:49.403Z,52.00
2018-06-16T05:01:17.871Z,52.10
2018-06-16T05:03:46.300Z,52.10
2018-06-16T05:06:14.806Z,52.20
2018-06-16T05:08:43.277Z,52.20
2018-06-16T05:11:11.762Z,52.30
2018-06-16T05:13:40.199Z,52.40
2018-06-16T05:16:08.682Z,53.00
2018-06-16T05:18:37.121Z,52.50
2018-06-16T05:21:05.658Z,52.60
2018-06-16T05:23:34.119Z,52.50
2018-06-16T05:26:02.585Z,52.50
2018-06-16T05:28:30.996Z,52.60
2018-06-16T05:30:59.626Z,52.50
2018-06-16T05:33:28.196Z,52.50
2018-06-16T05:35:56.673Z,52.60
2018-06-16T05:38:25.171Z,52.50
2018-06-16T05:40:53.585Z,52.60
2018-06-16T05:43:22.086Z,52.00
2018-06-16T05:45:50.519Z,52.50
2018-06-16T05:48:18.994Z,52.50
2018-06-16T05:50:47.448Z,52.60
2018-06-16T05:53:15.922Z,52.60
2018-06-16T05:55:44.439Z,52.70
2018-06-16T05:58:12.878Z,52.70
2018-06-16T06:00:41.353Z,52.70
2018-06-16T06:03:09.821Z,52.80
2018-06-16T06:05:38.281Z,52.80
2018-06-16T06:08:06.749Z,52.90
2018-06-16T06:10:35.276Z,52.90
2018-06-16T06:13:03.689Z,53.00
2018-06-16T06:15:32.137Z,52.90
2018-06-16T06:18:00.607Z,52.90
2018-06-16T06:20:29.048Z,52.90
2018-06-16T06:22:57.540Z,52.90
2018-06-16T06:25:26.134Z,52.90
2018-06-16T06:30:23.160Z,52.90
2018-06-16T06:32:51.913Z,53.00
2018-06-16T06:35:20.382Z,53.10
2018-06-16T06:37:48.869Z,53.10
2018-06-16T06:40:17.404Z,53.10
2018-06-16T06:42:45.889Z,53.20
2018-06-16T06:45:14.331Z,53.30
2018-06-16T06:47:42.795Z,53.40
2018-06-16T06:50:11.294Z,53.40
2018-06-16T06:52:39.737Z,53.40
2018-06-16T06:55:08.190Z,53.50
2018-06-16T06:57:36.672Z,53.50
2018-06-16T07:00:05.172Z,53.50
2018-06-16T07:02:33.634Z,53.50
2018-06-16T07:05:02.197Z,53.50
2018-06-16T07:07:30.745Z,53.50
2018-06-16T07:09:59.286Z,53.40
2018-06-16T07:12:27.744Z,53.30
2018-06-16T07:14:56.236Z,53.00
2018-06-16T07:17:24.754Z,53.10
2018-06-16T07:19:53.379Z,53.10
2018-06-16T07:22:21.881Z,53.20
2018-06-16T07:24:50.455Z,53.30
2018-06-16T07:27:18.935Z,53.40
2018-06-16T07:29:47.697Z,53.40
2018-06-16T07:32:16.213Z,53.50
2018-06-16T07:34:44.806Z,53.50
2018-06-16T07:37:13.277Z,53.70
2018-06-16T07:39:41.767Z,53.60
2018-06-16T07:42:10.275Z,53.60
2018-06-16T07:44:38.856Z,53.60
2018-06-16T07:47:07.608Z,53.70
2018-06-16T07:49:36.168Z,53.80
2018-06-16T07:52:04.641Z,53.80
2018-06-16T07:54:33.129Z,53.80
2018-06-16T07:57:01.656Z,53.80
2018-06-16T07:59:30.086Z,53.90
2018-06-16T08:01:58.532Z,53.90
2018-06-16T08:04:27.025Z,53.90
2018-06-16T08:06:55.742Z,54.00
2018-06-16T08:09:24.242Z,54.10
2018-06-16T08:11:52.791Z,54.10
2018-06-16T08:14:21.236Z,54.20
2018-06-16T08:16:49.714Z,54.20
2018-06-16T08:19:18.186Z,54.00
2018-06-16T08:21:46.612Z,54.00
2018-06-16T08:24:15.078Z,54.00
2018-06-16T08:26:43.525Z,54.00
2018-06-16T08:29:12.149Z,54.00
2018-06-16T08:31:40.587Z,54.10
2018-06-16T08:34:09.212Z,54.10
2018-06-16T08:36:37.663Z,54.20
2018-06-16T08:39:08.399Z,54.30
2018-06-16T08:41:36.957Z,54.20
2018-06-16T08:44:05.475Z,54.30
2018-06-16T08:46:33.970Z,54.70
2018-06-16T08:49:02.473Z,54.50
2018-06-16T08:51:31.046Z,54.60
2018-06-16T08:53:59.547Z,54.70
2018-06-16T08:56:29.614Z,54.70
2018-06-16T08:58:59.099Z,54.60
2018-06-16T09:01:27.781Z,54.70
2018-06-16T09:03:56.627Z,54.70
2018-06-16T09:06:25.788Z,54.70
2018-06-16T09:08:54.429Z,54.50
2018-06-16T09:11:22.952Z,54.30
2018-06-16T09:13:52.493Z,54.80
2018-06-16T09:16:21.260Z,55.20
2018-06-16T09:24:21.395Z,55.60
2018-06-16T09:26:50.604Z,56.00
2018-06-16T09:29:19.442Z,56.10
2018-06-16T09:31:48.584Z,56.20
2018-06-16T09:34:19.369Z,56.30
2018-06-16T09:36:48.603Z,56.50
2018-06-16T09:39:17.378Z,56.60
2018-06-16T09:41:46.097Z,56.70
2018-06-16T09:44:14.709Z,56.70
2018-06-16T09:46:43.566Z,56.90
2018-06-16T09:49:12.217Z,57.00
2018-06-16T09:51:40.896Z,57.20
2018-06-16T09:54:09.584Z,57.30
2018-06-16T09:56:38.395Z,57.30
2018-06-16T09:59:07.181Z,57.40
2018-06-16T10:01:35.821Z,57.60
2018-06-16T10:04:04.464Z,57.40
2018-06-16T10:06:33.233Z,57.40
2018-06-16T10:09:02.121Z,57.40
2018-06-16T10:11:30.751Z,57.40
2018-06-16T10:14:02.164Z,57.40
2018-06-16T10:16:31.053Z,57.30
2018-06-16T10:18:59.885Z,57.40
2018-06-16T10:21:28.748Z,57.40
2018-06-16T10:23:57.633Z,57.40
2018-06-16T10:26:26.262Z,57.00
2018-06-16T10:28:54.979Z,57.40
2018-06-16T10:31:23.624Z,57.40
2018-06-16T10:33:52.321Z,57.50
2018-06-16T10:36:20.981Z,57.50
2018-06-16T10:38:49.690Z,57.50
2018-06-16T10:41:18.119Z,57.50
2018-06-16T10:43:46.588Z,57.70
2018-06-16T10:46:15.011Z,57.50
2018-06-16T10:48:43.478Z,57.70
2018-06-16T10:51:11.944Z,57.70
2018-06-16T10:53:40.365Z,57.80
2018-06-16T10:56:09.790Z,58.00
2018-06-16T10:58:38.457Z,58.10
2018-06-16T11:01:07.102Z,58.30
2018-06-16T11:03:36.292Z,58.50
2018-06-16T11:06:05.803Z,58.60
2018-06-16T11:08:34.638Z,58.60
2018-06-16T11:11:03.573Z,58.70
2018-06-16T11:13:32.746Z,58.90
2018-06-16T11:16:02.604Z,59.00
2018-06-16T11:18:31.869Z,58.90
2018-06-16T11:21:00.649Z,59.10
2018-06-16T11:23:29.315Z,59.10
2018-06-16T11:25:57.981Z,59.20
2018-06-16T11:28:26.743Z,59.10
2018-06-16T11:30:55.414Z,59.00
2018-06-16T11:33:24.143Z,58.90
2018-06-16T11:35:52.734Z,58.80
2018-06-16T11:38:21.366Z,58.70
2018-06-16T11:40:50.016Z,58.80
2018-06-16T11:43:25.289Z,58.80
2018-06-16T11:45:53.994Z,58.80
2018-06-16T11:48:22.756Z,58.80
2018-06-16T11:53:19.742Z,59.10
2018-06-16T11:55:48.509Z,59.10
2018-06-16T11:58:17.215Z,59.10
2018-06-16T12:00:45.772Z,59.00
2018-06-16T12:03:14.515Z,59.10
2018-06-16T12:05:43.250Z,59.10
2018-06-16T12:08:12.171Z,59.00
2018-06-16T12:10:41.828Z,59.00
2018-06-16T12:13:10.643Z,58.90
2018-06-16T12:15:39.495Z,58.90
2018-06-16T12:18:08.449Z,58.90
2018-06-16T12:20:37.263Z,58.70
2018-06-16T12:23:06.109Z,58.70
2018-06-16T12:25:35.400Z,58.50
2018-06-16T12:28:05.051Z,58.60
2018-06-16T12:30:34.194Z,58.40
2018-06-16T12:33:03.031Z,58.30
2018-06-16T12:35:31.769Z,58.20
2018-06-16T12:38:00.716Z,58.10
2018-06-16T12:40:29.522Z,58.00
2018-06-16T12:42:58.181Z,57.90
2018-06-16T12:45:26.817Z,57.70
2018-06-16T12:47:56.484Z,57.60
2018-06-16T12:50:25.310Z,57.50
2018-06-16T12:52:53.950Z,57.30
2018-06-16T12:55:22.848Z,57.00
2018-06-16T12:57:51.547Z,56.90
2018-06-16T13:00:20.180Z,56.70
2018-06-16T13:02:48.984Z,56.40
2018-06-16T13:07:45.990Z,56.40
2018-06-16T13:10:14.877Z,56.20
2018-06-16T13:12:43.582Z,56.00
2018-06-16T13:15:12.179Z,55.80
2018-06-16T13:17:41.850Z,55.60
2018-06-16T13:20:11.475Z,55.50
2018-06-16T13:22:42.881Z,55.20
2018-06-16T13:25:11.648Z,55.00
2018-06-16T13:27:43.320Z,54.80
2018-06-16T13:30:12.653Z,54.50
2018-06-16T13:32:41.362Z,54.50
2018-06-16T13:35:09.923Z,54.20
2018-06-16T13:37:39.885Z,53.90
2018-06-16T13:40:12.393Z,53.80
2018-06-16T13:42:41.019Z,54.10
2018-06-16T13:45:09.767Z,53.30
2018-06-16T13:47:39.348Z,53.10
2018-06-16T13:50:08.010Z,52.90
2018-06-16T13:52:36.696Z,52.70
2018-06-16T13:55:07.000Z,52.50
2018-06-16T13:57:35.753Z,52.50
2018-06-16T14:00:04.850Z,52.20
2018-06-16T14:02:33.399Z,52.10
2018-06-16T14:05:02.060Z,52.10
2018-06-16T14:07:30.641Z,52.00
2018-06-16T14:10:00.431Z,52.00
2018-06-16T14:12:29.045Z,51.80
2018-06-16T14:14:57.615Z,51.60
2018-06-16T14:17:26.122Z,51.50
2018-06-16T14:19:54.844Z,51.20
2018-06-16T14:22:23.461Z,51.20
2018-06-16T14:24:52.069Z,51.50
2018-06-16T14:27:20.629Z,51.10
2018-06-16T14:29:49.414Z,51.00
2018-06-16T14:32:17.962Z,50.90
2018-06-16T14:34:46.461Z,50.80
2018-06-16T14:37:15.248Z,51.20
2018-06-16T14:39:43.698Z,50.50
2018-06-16T14:42:12.256Z,50.50
2018-06-16T14:44:42.536Z,50.50
2018-06-16T14:47:11.417Z,50.50
2018-06-16T14:49:40.793Z,50.40
2018-06-16T14:52:09.338Z,50.40
2018-06-16T14:54:38.056Z,50.40
2018-06-16T14:57:06.662Z,50.30
2018-06-16T14:59:35.108Z,50.20
2018-06-16T15:02:03.931Z,50.20
2018-06-16T15:04:32.491Z,50.60
2018-06-16T15:07:01.091Z,50.00
2018-06-16T15:09:29.799Z,49.80
2018-06-16T15:11:58.287Z,49.80
2018-06-16T15:14:26.911Z,49.70
2018-06-16T15:16:55.445Z,49.60
2018-06-16T15:19:23.903Z,49.50
2018-06-16T15:21:52.352Z,49.50
2018-06-16T15:24:20.839Z,49.30
2018-06-16T15:26:49.574Z,49.20
2018-06-16T15:29:18.184Z,49.10
2018-06-16T15:31:47.429Z,49.10
2018-06-16T15:34:16.361Z,49.10
2018-06-16T15:36:45.050Z,49.10
2018-06-16T15:39:13.527Z,49.20
2018-06-16T15:41:42.232Z,49.30
2018-06-16T15:44:10.972Z,49.10
2018-06-16T15:46:39.600Z,49.60
2018-06-16T15:49:08.128Z,49.00
2018-06-16T15:51:36.734Z,49.00
2018-06-16T15:54:05.389Z,49.10
2018-06-16T15:56:37.311Z,49.00
2018-06-16T15:59:06.096Z,48.90
2018-06-16T16:01:34.661Z,48.90
2018-06-16T16:04:03.122Z,48.90
2018-06-16T16:06:31.633Z,48.90
2018-06-16T16:09:00.145Z,48.70
2018-06-16T16:11:28.583Z,48.70
2018-06-16T16:13:57.010Z,48.60
2018-06-16T16:16:25.452Z,48.20
2018-06-16T16:18:54.138Z,48.10
2018-06-16T16:21:22.571Z,48.20
2018-06-16T16:23:51.052Z,48.20
2018-06-16T16:26:19.495Z,48.20
2018-06-16T16:28:47.962Z,48.20
2018-06-16T16:31:16.420Z,48.10
2018-06-16T16:33:44.890Z,48.10
2018-06-16T16:36:13.483Z,48.10
2018-06-16T16:38:41.950Z,48.10
2018-06-16T16:41:10.435Z,48.00
2018-06-16T16:43:39.002Z,48.10
2018-06-16T16:48:35.641Z,48.00
2018-06-16T16:51:04.100Z,47.90
2018-06-16T16:53:32.666Z,47.90
2018-06-16T16:56:01.107Z,47.70
2018-06-16T16:58:29.581Z,47.70
2018-06-16T17:00:59.345Z,47.60
2018-06-16T17:03:27.914Z,47.70
2018-06-16T17:05:56.460Z,47.70
2018-06-16T17:08:25.701Z,47.70
2018-06-16T17:10:54.338Z,47.60
2018-06-16T17:13:22.947Z,47.70
2018-06-16T17:15:51.591Z,47.60
2018-06-16T17:18:20.124Z,47.30
2018-06-16T17:20:50.370Z,47.10
2018-06-16T17:23:18.994Z,47.00
2018-06-16T17:25:47.522Z,46.80
2018-06-16T17:28:16.184Z,46.70
2018-06-16T17:30:44.734Z,46.70
2018-06-16T17:33:13.442Z,46.60
2018-06-16T17:35:42.162Z,46.30
2018-06-16T17:38:11.611Z,46.20
2018-06-16T17:40:40.235Z,46.30
2018-06-16T17:43:08.775Z,46.30
2018-06-16T17:45:37.465Z,46.20
2018-06-16T17:48:06.121Z,46.20
2018-06-16T17:50:34.803Z,46.20
2018-06-16T17:53:03.355Z,46.30
2018-06-16T17:55:32.453Z,46.20
2018-06-16T17:58:01.027Z,46.30
2018-06-16T18:00:30.695Z,46.30
2018-06-16T18:02:59.190Z,46.50
2018-06-16T18:05:27.803Z,46.50
2018-06-16T18:07:56.299Z,46.60
2018-06-16T18:10:24.955Z,46.80
2018-06-16T18:12:53.490Z,47.00
2018-06-16T18:15:22.055Z,47.00
2018-06-16T18:17:50.607Z,47.00
2018-06-16T18:20:19.097Z,46.90
2018-06-16T18:22:47.590Z,47.30
2018-06-16T18:25:16.054Z,47.60
2018-06-16T18:27:44.494Z,47.70
2018-06-16T18:30:14.637Z,47.80
2018-06-16T18:32:43.170Z,48.00
2018-06-16T18:35:11.950Z,48.10
2018-06-16T18:37:40.539Z,48.20
2018-06-16T18:40:09.271Z,48.30
2018-06-16T18:42:37.908Z,48.40
2018-06-16T18:45:06.503Z,48.50
2018-06-16T18:47:35.178Z,48.70
2018-06-16T18:50:03.969Z,48.80
2018-06-16T18:52:32.735Z,49.00
2018-06-16T18:55:01.345Z,48.90
2018-06-16T18:57:29.936Z,49.10
2018-06-16T18:59:58.491Z,49.30
2018-06-16T19:02:27.103Z,49.40
2018-06-16T19:04:56.638Z,49.50
2018-06-16T19:07:25.324Z,49.60
2018-06-16T19:09:53.938Z,49.70
2018-06-16T19:12:22.511Z,49.90
2018-06-16T19:14:51.049Z,49.80
2018-06-16T19:17:19.566Z,49.90
2018-06-16T19:19:48.379Z,50.00
2018-06-16T19:22:16.880Z,50.10
2018-06-16T19:24:45.330Z,50.20
2018-06-16T19:27:13.816Z,50.30
2018-06-16T19:29:42.289Z,50.40
2018-06-16T19:32:10.737Z,50.40
2018-06-16T19:34:39.240Z,50.60
2018-06-16T19:37:07.777Z,50.60
2018-06-16T19:39:36.264Z,50.80
2018-06-16T19:42:04.738Z,50.80
2018-06-16T19:44:33.257Z,50.80
2018-06-16T19:49:29.899Z,51.00
2018-06-16T19:51:58.312Z,51.00
2018-06-16T19:54:26.771Z,51.20
2018-06-16T19:56:55.207Z,51.30
2018-06-16T19:59:23.634Z,51.40
2018-06-16T20:01:52.082Z,51.50
2018-06-16T20:04:20.541Z,51.60
2018-06-16T20:06:49.099Z,51.80
2018-06-16T20:09:17.551Z,51.90
2018-06-16T20:11:46.052Z,52.00
2018-06-16T20:14:14.526Z,52.10
2018-06-16T20:16:42.968Z,52.20
2018-06-16T20:19:11.451Z,52.30
2018-06-16T20:21:39.903Z,52.50
2018-06-16T20:24:08.488Z,52.60
2018-06-16T20:26:36.928Z,52.60
2018-06-16T20:29:05.390Z,52.60
2018-06-16T20:31:34.432Z,52.60
2018-06-16T20:34:03.120Z,52.50
2018-06-16T20:36:31.764Z,52.80
2018-06-16T20:39:00.471Z,52.80
2018-06-16T20:41:29.311Z,53.00
2018-06-16T20:43:57.889Z,53.70
2018-06-16T20:46:26.391Z,53.80
2018-06-16T20:48:55.227Z,54.20
2018-06-16T20:51:23.680Z,54.20
2018-06-16T20:53:52.157Z,54.20
2018-06-16T20:56:20.630Z,54.20
2018-06-16T20:58:49.149Z,54.10
2018-06-16T21:01:17.601Z,54.10
2018-06-16T21:03:46.134Z,54.10
2018-06-16T21:08:45.060Z,54.10
2018-06-16T21:11:13.596Z,54.20
2018-06-16T21:13:42.190Z,54.20
2018-06-16T21:16:10.941Z,54.20
2018-06-16T21:18:39.377Z,54.30
2018-06-16T21:21:08.091Z,54.30
2018-06-16T21:26:08.407Z,54.40
2018-06-16T21:28:38.128Z,54.60
2018-06-16T21:31:06.810Z,54.70
2018-06-16T21:33:35.496Z,54.80
2018-06-16T21:36:05.373Z,54.80
2018-06-16T21:38:34.220Z,54.80
2018-06-16T21:41:02.888Z,54.80
2018-06-16T21:43:31.536Z,54.80
2018-06-16T21:46:00.519Z,54.80
2018-06-16T21:48:29.135Z,54.80
2018-06-16T21:50:58.192Z,54.80
2018-06-16T21:53:26.753Z,55.00
2018-06-16T21:55:55.249Z,55.00
2018-06-16T21:58:23.728Z,55.00
2018-06-16T22:00:52.462Z,54.90
2018-06-16T22:03:24.763Z,54.90
2018-06-16T22:05:53.294Z,54.90
2018-06-16T22:08:27.623Z,54.90
2018-06-16T22:10:56.289Z,54.90
2018-06-16T22:13:24.784Z,55.00
2018-06-16T22:15:54.399Z,55.10
2018-06-16T22:18:23.015Z,55.30
2018-06-16T22:20:51.454Z,55.30
2018-06-16T22:23:19.992Z,55.40
2018-06-16T22:25:48.683Z,55.60
2018-06-16T22:28:18.577Z,55.70
2018-06-16T22:30:47.219Z,55.90
2018-06-16T22:33:16.069Z,56.00
2018-06-16T22:35:44.826Z,56.20
2018-06-16T22:38:13.410Z,56.30
2018-06-16T22:40:41.935Z,56.30
2018-06-16T22:43:10.386Z,56.40
2018-06-16T22:45:39.052Z,56.60
2018-06-16T22:48:07.540Z,56.80
2018-06-16T22:50:36.152Z,56.80
2018-06-16T22:53:04.816Z,56.90
2018-06-16T22:55:33.371Z,57.00
2018-06-16T22:58:01.882Z,57.10
2018-06-16T23:00:30.362Z,57.20
2018-06-16T23:02:59.354Z,57.30
2018-06-16T23:05:28.053Z,57.40
2018-06-16T23:07:56.658Z,57.50
2018-06-16T23:10:25.470Z,57.60
2018-06-16T23:12:53.948Z,58.20
2018-06-16T23:15:22.451Z,57.80
2018-06-16T23:17:52.748Z,57.90
2018-06-16T23:20:21.463Z,57.90
2018-06-16T23:25:19.148Z,58.10
2018-06-16T23:30:16.514Z,58.30
2018-06-16T23:32:45.431Z,58.40
2018-06-16T23:35:13.966Z,58.50
2018-06-16T23:37:42.486Z,58.50
2018-06-16T23:40:13.986Z,58.60
2018-06-16T23:42:42.841Z,58.70
2018-06-16T23:45:11.315Z,58.70
2018-06-16T23:47:40.559Z,58.70
2018-06-16T23:50:09.139Z,58.80
2018-06-16T23:52:37.629Z,58.90
2018-06-16T23:55:06.964Z,58.90
2018-06-16T23:57:41.479Z,59.00
